Time;durP1;ratioP1;P1;durP2;ratioP2;P2;SDS_P1;SDS_P2;PMS_P1;PMS_P2;Temp;Humidity;BMP_temperature;BMP_pressure;BME280_temperature;BME280_humidity;BME280_pressure;Samples;Min_cycle;Max_cycle;Signal;HPM_P1;HPM_P2
2021/06/18 00:00:09;;;;;;;8.27;6.10;;;;;;;;;;343653;28;1334;-72
2021/06/18 00:00:23;;;;;;;10.15;6.15;;;;;;;;;;342160;28;40156;-71
2021/06/18 00:00:35;;;;;;;9.20;5.95;;;;;;;;;;343407;28;17231;-71
2021/06/18 00:00:48;;;;;;;8.92;5.94;;;;;;;;;;343880;28;2006;-72
2021/06/18 00:01:00;;;;;;;7.80;6.00;;;;;;;;;;345742;28;1096;-71
2021/06/18 00:01:12;;;;;;;8.85;6.18;;;;;;;;;;346012;28;1499;-71
2021/06/18 00:01:25;;;;;;;9.07;6.00;;;;;;;;;;344955;28;1003;-71
2021/06/18 00:01:37;;;;;;;9.40;6.00;;;;;;;;;;345233;28;1160;-72
2021/06/18 00:01:49;;;;;;;9.52;6.25;;;;;;;;;;345989;28;1020;-72
2021/06/18 00:02:02;;;;;;;8.80;6.40;;;;;;;;;;346224;28;1267;-71
2021/06/18 00:02:14;;;;;;;7.97;6.60;;;;;;;;;;346073;28;1043;-71
2021/06/18 00:02:27;;;;;;;8.73;6.70;;;;;;;;;;346334;28;1069;-71
2021/06/18 00:02:39;;;;;;;9.07;6.50;;;;;;;;;;345157;28;1104;-71
2021/06/18 00:02:51;;;;;;;7.97;6.18;;;;;;;;;;344271;28;998;-71
2021/06/18 00:03:04;;;;;;;8.50;6.20;;;;;;;;;;342490;28;1086;-71
2021/06/18 00:03:16;;;;;;;10.55;6.60;;;;;;;;;;341187;29;1003;-72
2021/06/18 00:03:28;;;;;;;11.23;6.68;;;;;;;;;;341027;29;1169;-72
2021/06/18 00:03:40;;;;;;;10.57;6.40;;;;;;;;;;341322;28;1010;-71
2021/06/18 00:03:52;;;;;;;10.93;6.38;;;;;;;;;;342125;28;1307;-71
2021/06/18 00:04:04;;;;;;;10.77;6.20;;;;;;;;;;342056;28;1285;-72
2021/06/18 00:04:16;;;;;;;10.52;6.25;;;;;;;;;;342398;28;1182;-71
2021/06/18 00:04:28;;;;;;;8.93;6.22;;;;;;;;;;342453;28;1086;-71
2021/06/18 00:04:40;;;;;;;8.25;6.22;;;;;;;;;;343040;28;1169;-72
2021/06/18 00:04:53;;;;;;;7.68;5.95;;;;;;;;;;343612;28;1174;-72
2021/06/18 00:05:06;;;;;;;7.63;5.80;;;;;;;;;;344707;28;1884;-71
2021/06/18 00:05:18;;;;;;;8.38;5.70;;;;;;;;;;345124;28;1120;-71
2021/06/18 00:05:31;;;;;;;8.08;5.68;;;;;;;;;;345576;28;1290;-71
2021/06/18 00:05:43;;;;;;;8.18;6.05;;;;;;;;;;345382;28;994;-72
2021/06/18 00:05:55;;;;;;;8.93;6.35;;;;;;;;;;344802;28;1099;-71
2021/06/18 00:06:07;;;;;;;9.55;6.30;;;;;;;;;;344920;28;1078;-71
2021/06/18 00:06:19;;;;;;;8.90;5.95;;;;;;;;;;345060;28;1103;-70
2021/06/18 00:06:31;;;;;;;8.30;5.85;;;;;;;;;;344783;28;1148;-72
2021/06/18 00:06:43;;;;;;;9.13;6.10;;;;;;;;;;344938;28;1084;-72
2021/06/18 00:06:55;;;;;;;10.27;6.35;;;;;;;;;;344963;28;1051;-72
2021/06/18 00:07:08;;;;;;;9.43;6.18;;;;;;;;;;343994;28;1283;-72
2021/06/18 00:07:20;;;;;;;7.00;5.68;;;;;;;;;;344825;28;1711;-73
2021/06/18 00:07:32;;;;;;;6.05;5.43;;;;;;;;;;343737;28;1119;-71
2021/06/18 00:07:45;;;;;;;6.97;5.60;;;;;;;;;;343531;28;1082;-72
2021/06/18 00:07:57;;;;;;;7.53;5.70;;;;;;;;;;343613;28;1094;-71
2021/06/18 00:08:09;;;;;;;9.20;5.72;;;;;;;;;;343627;28;1114;-71
2021/06/18 00:08:22;;;;;;;11.15;5.93;;;;;;;;;;343672;28;1032;-72
2021/06/18 00:08:36;;;;;;;10.20;6.00;;;;;;;;;;343629;28;1234;-72
2021/06/18 00:08:48;;;;;;;8.10;5.80;;;;;;;;;;343067;28;16626;-72
2021/06/18 00:09:01;;;;;;;8.02;5.70;;;;;;;;;;343626;28;1091;-72
2021/06/18 00:09:13;;;;;;;7.57;5.70;;;;;;;;;;343436;28;1043;-72
2021/06/18 00:09:25;;;;;;;8.00;5.75;;;;;;;;;;344089;28;1088;-72
2021/06/18 00:09:38;;;;;;;8.38;6.10;;;;;;;;;;343757;28;1215;-71
2021/06/18 00:09:50;;;;;;;9.57;6.43;;;;;;;;;;344335;28;1118;-72
2021/06/18 00:10:05;;;;;;;9.94;6.56;;;;;;;;;;345172;28;1422;-71
2021/06/18 00:10:19;;;;;;;9.98;6.47;;;;;;;;;;344533;28;16772;-72
2021/06/18 00:10:31;;;;;;;9.43;6.28;;;;;;;;;;343616;28;1049;-71
2021/06/18 00:10:44;;;;;;;7.65;6.15;;;;;;;;;;343810;28;1094;-72
2021/06/18 00:10:56;;;;;;;7.97;6.20;;;;;;;;;;344003;28;1102;-72
2021/06/18 00:11:08;;;;;;;8.43;6.05;;;;;;;;;;344021;28;1267;-72
2021/06/18 00:11:21;;;;;;;10.10;5.93;;;;;;;;;;344009;28;1061;-72
2021/06/18 00:11:33;;;;;;;9.65;5.85;;;;;;;;;;342266;28;1075;-71
2021/06/18 00:11:45;;;;;;;8.70;5.82;;;;;;;;;;341077;29;1036;-72
2021/06/18 00:11:57;;;;;;;7.32;5.60;;;;;;;;;;340937;29;1174;-72
2021/06/18 00:12:10;;;;;;;7.60;5.54;;;;;;;;;;341063;29;1161;-72
2021/06/18 00:12:22;;;;;;;8.05;5.65;;;;;;;;;;341804;28;1244;-72
2021/06/18 00:12:34;;;;;;;7.85;5.88;;;;;;;;;;342232;28;1079;-72
2021/06/18 00:12:47;;;;;;;8.80;5.65;;;;;;;;;;342240;28;1224;-71
2021/06/18 00:12:59;;;;;;;7.53;5.30;;;;;;;;;;341758;28;1949;-72
2021/06/18 00:13:11;;;;;;;6.47;5.15;;;;;;;;;;341846;28;1035;-72
2021/06/18 00:13:23;;;;;;;7.72;5.65;;;;;;;;;;340790;29;992;-70
2021/06/18 00:13:35;;;;;;;7.68;6.07;;;;;;;;;;343072;28;1075;-72
2021/06/18 00:13:48;;;;;;;8.07;6.40;;;;;;;;;;343647;28;1207;-72
2021/06/18 00:14:00;;;;;;;8.88;6.13;;;;;;;;;;344993;28;1071;-72
2021/06/18 00:14:12;;;;;;;9.02;5.78;;;;;;;;;;345092;28;1189;-72
2021/06/18 00:14:25;;;;;;;8.82;5.43;;;;;;;;;;344970;28;1081;-72
2021/06/18 00:14:37;;;;;;;7.70;5.57;;;;;;;;;;344819;28;1124;-71
2021/06/18 00:14:49;;;;;;;8.48;5.50;;;;;;;;;;344959;28;1168;-72
2021/06/18 00:15:02;;;;;;;10.38;5.38;;;;;;;;;;345023;28;1871;-71
2021/06/18 00:15:14;;;;;;;9.77;5.53;;;;;;;;;;344686;28;1108;-72
2021/06/18 00:15:26;;;;;;;10.30;6.22;;;;;;;;;;344993;28;1926;-71
2021/06/18 00:15:38;;;;;;;9.35;6.38;;;;;;;;;;344873;28;1994;-71
2021/06/18 00:15:51;;;;;;;8.63;5.88;;;;;;;;;;345887;28;971;-71
2021/06/18 00:16:03;;;;;;;8.13;5.70;;;;;;;;;;344218;28;1118;-71
2021/06/18 00:16:15;;;;;;;9.93;6.05;;;;;;;;;;343685;28;1239;-72
2021/06/18 00:16:27;;;;;;;10.60;6.16;;;;;;;;;;343696;28;1014;-71
2021/06/18 00:16:39;;;;;;;9.63;5.80;;;;;;;;;;343700;28;1173;-71
2021/06/18 00:16:52;;;;;;;8.60;5.85;;;;;;;;;;343665;28;1099;-71
2021/06/18 00:17:04;;;;;;;9.10;6.22;;;;;;;;;;343691;28;1088;-72
2021/06/18 00:17:16;;;;;;;9.68;6.20;;;;;;;;;;343910;28;1081;-71
2021/06/18 00:17:28;;;;;;;8.45;5.88;;;;;;;;;;343724;28;1268;-72
2021/06/18 00:17:40;;;;;;;7.05;5.85;;;;;;;;;;343922;28;2018;-71
2021/06/18 00:17:53;;;;;;;8.48;5.85;;;;;;;;;;344494;28;1551;-71
2021/06/18 00:18:05;;;;;;;8.75;6.00;;;;;;;;;;344703;28;1686;-71
2021/06/18 00:18:17;;;;;;;8.57;5.85;;;;;;;;;;346193;28;1161;-71
2021/06/18 00:18:30;;;;;;;8.85;5.95;;;;;;;;;;346305;28;1105;-72
2021/06/18 00:18:42;;;;;;;9.10;5.93;;;;;;;;;;346705;28;1098;-71
2021/06/18 00:18:54;;;;;;;9.60;6.22;;;;;;;;;;346240;28;2007;-71
2021/06/18 00:19:09;;;;;;;8.80;6.00;;;;;;;;;;345337;28;41235;-72
2021/06/18 00:19:22;;;;;;;9.13;6.15;;;;;;;;;;345243;28;1982;-72
2021/06/18 00:19:35;;;;;;;8.73;6.10;;;;;;;;;;344473;28;1185;-71
2021/06/18 00:19:47;;;;;;;8.10;5.97;;;;;;;;;;342253;28;1174;-72
2021/06/18 00:19:59;;;;;;;8.13;5.85;;;;;;;;;;342231;28;1198;-72
2021/06/18 00:20:12;;;;;;;8.48;5.82;;;;;;;;;;342228;28;1014;-71
2021/06/18 00:20:26;;;;;;;8.00;5.78;;;;;;;;;;342742;28;1101;-70
2021/06/18 00:20:38;;;;;;;8.77;5.90;;;;;;;;;;343667;28;1462;-71
2021/06/18 00:20:50;;;;;;;9.35;6.18;;;;;;;;;;343675;28;1177;-70
2021/06/18 00:21:03;;;;;;;9.77;6.22;;;;;;;;;;343482;28;1142;-71
2021/06/18 00:21:15;;;;;;;9.18;6.03;;;;;;;;;;343622;28;1307;-71
2021/06/18 00:21:27;;;;;;;8.80;5.72;;;;;;;;;;343343;28;1130;-71
2021/06/18 00:21:39;;;;;;;7.93;5.97;;;;;;;;;;342346;28;1077;-72
2021/06/18 00:21:51;;;;;;;8.43;6.25;;;;;;;;;;343542;28;1167;-71
2021/06/18 00:22:04;;;;;;;9.23;6.10;;;;;;;;;;343900;28;1948;-71
2021/06/18 00:22:16;;;;;;;8.55;5.72;;;;;;;;;;344022;28;1248;-72
2021/06/18 00:22:28;;;;;;;8.25;5.93;;;;;;;;;;345215;28;1095;-71
2021/06/18 00:22:40;;;;;;;8.55;6.28;;;;;;;;;;343624;28;1092;-71
2021/06/18 00:22:53;;;;;;;8.77;6.30;;;;;;;;;;343443;28;1122;-72
2021/06/18 00:23:05;;;;;;;9.45;6.45;;;;;;;;;;343401;28;1514;-72
2021/06/18 00:23:17;;;;;;;9.55;6.28;;;;;;;;;;343527;28;1035;-72
2021/06/18 00:23:29;;;;;;;8.27;6.00;;;;;;;;;;343654;28;1045;-72
2021/06/18 00:23:41;;;;;;;8.02;5.97;;;;;;;;;;343593;28;1158;-72
2021/06/18 00:23:53;;;;;;;8.30;6.00;;;;;;;;;;343509;28;1141;-71
2021/06/18 00:24:06;;;;;;;8.55;6.15;;;;;;;;;;343624;28;1105;-72
2021/06/18 00:24:18;;;;;;;8.52;6.28;;;;;;;;;;343552;28;1097;-72
2021/06/18 00:24:30;;;;;;;8.05;6.38;;;;;;;;;;342144;28;1624;-71
2021/06/18 00:24:42;;;;;;;7.75;6.18;;;;;;;;;;342871;28;1353;-72
2021/06/18 00:24:57;;;;;;;7.88;6.20;;;;;;;;;;343727;28;1022;-71
2021/06/18 00:25:09;;;;;;;8.52;6.10;;;;;;;;;;342135;28;41471;-71
2021/06/18 00:25:22;;;;;;;8.25;6.20;;;;;;;;;;343550;28;1103;-71
2021/06/18 00:25:34;;;;;;;7.63;6.25;;;;;;;;;;343497;28;1158;-72
2021/06/18 00:25:46;;;;;;;7.00;6.28;;;;;;;;;;342663;28;2228;-71
2021/06/18 00:25:58;;;;;;;8.85;6.53;;;;;;;;;;343273;28;1247;-71
2021/06/18 00:26:10;;;;;;;10.15;6.75;;;;;;;;;;343437;28;1041;-72
2021/06/18 00:26:23;;;;;;;9.68;6.90;;;;;;;;;;342687;28;1302;-71
2021/06/18 00:26:35;;;;;;;9.70;6.95;;;;;;;;;;344624;28;1090;-71
2021/06/18 00:26:47;;;;;;;9.38;6.55;;;;;;;;;;344300;28;1109;-72
2021/06/18 00:26:59;;;;;;;9.02;6.28;;;;;;;;;;343687;28;1135;-72
2021/06/18 00:27:11;;;;;;;10.13;6.45;;;;;;;;;;343744;28;1114;-72
2021/06/18 00:27:24;;;;;;;10.80;6.53;;;;;;;;;;343564;28;1077;-72
2021/06/18 00:27:36;;;;;;;10.32;6.53;;;;;;;;;;343679;28;1223;-71
2021/06/18 00:27:48;;;;;;;9.35;6.25;;;;;;;;;;343804;28;1205;-72
2021/06/18 00:28:00;;;;;;;8.98;6.10;;;;;;;;;;343683;28;1000;-72
2021/06/18 00:28:15;;;;;;;8.10;6.07;;;;;;;;;;343725;28;1168;-71
2021/06/18 00:28:28;;;;;;;7.93;6.40;;;;;;;;;;342952;28;39650;-71
2021/06/18 00:28:42;;;;;;;8.48;6.63;;;;;;;;;;344879;28;1666;-72
2021/06/18 00:28:54;;;;;;;9.60;6.32;;;;;;;;;;344910;28;17079;-72
2021/06/18 00:29:06;;;;;;;8.88;6.10;;;;;;;;;;345099;28;1115;-72
2021/06/18 00:29:18;;;;;;;8.68;6.07;;;;;;;;;;345079;28;1150;-71
2021/06/18 00:29:30;;;;;;;8.77;6.13;;;;;;;;;;343583;28;1287;-72
2021/06/18 00:29:42;;;;;;;9.52;6.07;;;;;;;;;;343594;28;1099;-71
2021/06/18 00:29:54;;;;;;;9.40;5.86;;;;;;;;;;342386;28;1081;-71
2021/06/18 00:30:07;;;;;;;8.95;5.95;;;;;;;;;;342515;28;1065;-71
2021/06/18 00:30:21;;;;;;;8.68;6.20;;;;;;;;;;341836;28;17115;-72
2021/06/18 00:30:34;;;;;;;7.90;6.07;;;;;;;;;;343513;28;1071;-72
2021/06/18 00:30:46;;;;;;;8.07;5.80;;;;;;;;;;343445;28;1031;-72
2021/06/18 00:31:01;;;;;;;8.68;6.10;;;;;;;;;;343277;28;2004;-72
2021/06/18 00:31:13;;;;;;;8.30;6.30;;;;;;;;;;342131;28;40094;-71
2021/06/18 00:31:25;;;;;;;8.43;6.20;;;;;;;;;;343583;28;1295;-71
2021/06/18 00:31:37;;;;;;;8.70;6.18;;;;;;;;;;342429;28;1386;-72
2021/06/18 00:31:49;;;;;;;9.73;6.30;;;;;;;;;;343723;28;1088;-71
2021/06/18 00:32:02;;;;;;;10.23;6.60;;;;;;;;;;343478;28;1102;-71
2021/06/18 00:32:14;;;;;;;11.68;6.80;;;;;;;;;;343681;28;1058;-72
2021/06/18 00:32:26;;;;;;;11.65;6.57;;;;;;;;;;343780;28;1118;-72
2021/06/18 00:32:39;;;;;;;10.02;6.38;;;;;;;;;;343645;28;1047;-72
2021/06/18 00:32:51;;;;;;;7.57;6.40;;;;;;;;;;343519;28;1141;-71
2021/06/18 00:33:03;;;;;;;7.60;6.40;;;;;;;;;;343560;28;1184;-71
2021/06/18 00:33:15;;;;;;;8.48;6.20;;;;;;;;;;344607;28;2097;-71
2021/06/18 00:33:29;;;;;;;8.60;6.13;;;;;;;;;;345253;28;1143;-71
2021/06/18 00:33:41;;;;;;;10.50;6.70;;;;;;;;;;344569;28;16814;-72
2021/06/18 00:33:53;;;;;;;10.85;6.70;;;;;;;;;;344823;28;1217;-71
2021/06/18 00:34:06;;;;;;;9.32;6.35;;;;;;;;;;345059;28;1089;-71
2021/06/18 00:34:18;;;;;;;8.32;6.22;;;;;;;;;;345074;28;1931;-72
2021/06/18 00:34:30;;;;;;;8.00;6.65;;;;;;;;;;344268;28;1154;-72
2021/06/18 00:34:42;;;;;;;8.85;6.45;;;;;;;;;;344964;28;1060;-71
2021/06/18 00:34:54;;;;;;;9.40;6.43;;;;;;;;;;344066;28;1323;-71
2021/06/18 00:35:06;;;;;;;7.93;6.35;;;;;;;;;;343651;28;1217;-72
2021/06/18 00:35:19;;;;;;;9.00;6.25;;;;;;;;;;343699;28;1086;-72
2021/06/18 00:35:31;;;;;;;11.57;6.45;;;;;;;;;;343757;28;1225;-72
2021/06/18 00:35:43;;;;;;;11.13;6.38;;;;;;;;;;343744;28;1090;-71
2021/06/18 00:35:57;;;;;;;9.70;6.57;;;;;;;;;;343231;28;17111;-71
2021/06/18 00:36:09;;;;;;;8.85;6.40;;;;;;;;;;343734;28;1082;-72
2021/06/18 00:36:21;;;;;;;9.20;6.53;;;;;;;;;;343619;28;1376;-71
2021/06/18 00:36:33;;;;;;;9.25;6.05;;;;;;;;;;344671;28;1164;-71
2021/06/18 00:36:45;;;;;;;8.38;5.72;;;;;;;;;;344923;28;1105;-71
2021/06/18 00:36:58;;;;;;;9.10;6.00;;;;;;;;;;344891;28;1881;-72
2021/06/18 00:37:10;;;;;;;8.45;6.13;;;;;;;;;;344134;28;1295;-71
2021/06/18 00:37:22;;;;;;;9.13;6.25;;;;;;;;;;345154;28;1172;-72
2021/06/18 00:37:36;;;;;;;9.43;6.40;;;;;;;;;;344321;28;1371;-70
2021/06/18 00:37:48;;;;;;;9.40;6.40;;;;;;;;;;343098;28;17807;-71
2021/06/18 00:38:01;;;;;;;9.15;6.40;;;;;;;;;;343810;28;1161;-71
2021/06/18 00:38:14;;;;;;;9.75;6.90;;;;;;;;;;344022;28;1248;-72
2021/06/18 00:38:26;;;;;;;9.93;6.95;;;;;;;;;;345349;28;1121;-71
2021/06/18 00:38:39;;;;;;;9.63;6.60;;;;;;;;;;345044;28;1102;-71
2021/06/18 00:38:51;;;;;;;9.07;6.50;;;;;;;;;;344863;28;1095;-71
2021/06/18 00:39:04;;;;;;;10.48;6.78;;;;;;;;;;345349;28;1155;-71
2021/06/18 00:39:16;;;;;;;12.75;6.95;;;;;;;;;;344504;28;1583;-72
2021/06/18 00:39:28;;;;;;;11.70;6.53;;;;;;;;;;345502;28;1659;-71
2021/06/18 00:39:40;;;;;;;9.25;6.32;;;;;;;;;;344851;28;1657;-71
2021/06/18 00:39:55;;;;;;;8.85;6.55;;;;;;;;;;346482;28;1297;-72
2021/06/18 00:40:07;;;;;;;8.45;6.68;;;;;;;;;;343138;28;17317;-72
2021/06/18 00:40:20;;;;;;;8.75;6.55;;;;;;;;;;343748;28;988;-72
2021/06/18 00:40:32;;;;;;;8.38;6.65;;;;;;;;;;343836;28;1141;-71
2021/06/18 00:40:45;;;;;;;9.35;6.70;;;;;;;;;;343875;28;1065;-71
2021/06/18 00:40:57;;;;;;;10.32;6.57;;;;;;;;;;343630;28;1102;-71
2021/06/18 00:41:09;;;;;;;9.70;6.15;;;;;;;;;;343769;28;1115;-72
2021/06/18 00:41:21;;;;;;;10.02;6.10;;;;;;;;;;343704;28;1413;-72
2021/06/18 00:41:34;;;;;;;10.07;6.28;;;;;;;;;;343786;28;1054;-72
2021/06/18 00:41:46;;;;;;;9.60;6.50;;;;;;;;;;343865;28;1894;-72
2021/06/18 00:41:58;;;;;;;8.07;6.28;;;;;;;;;;345746;28;1982;-71
2021/06/18 00:42:10;;;;;;;7.60;5.72;;;;;;;;;;345931;28;1185;-71
2021/06/18 00:42:22;;;;;;;8.45;5.85;;;;;;;;;;344895;28;994;-72
2021/06/18 00:42:35;;;;;;;9.20;6.53;;;;;;;;;;345118;28;962;-72
2021/06/18 00:42:47;;;;;;;11.43;6.95;;;;;;;;;;346050;28;1130;-71
2021/06/18 00:42:59;;;;;;;13.07;6.85;;;;;;;;;;346397;28;1316;-72
2021/06/18 00:43:11;;;;;;;9.98;6.45;;;;;;;;;;346233;28;1188;-71
2021/06/18 00:43:23;;;;;;;9.00;6.70;;;;;;;;;;346135;28;1310;-72
2021/06/18 00:43:36;;;;;;;8.90;6.90;;;;;;;;;;346495;28;1132;-72
2021/06/18 00:43:51;;;;;;;8.93;6.95;;;;;;;;;;345901;28;1114;-72
2021/06/18 00:44:03;;;;;;;10.13;6.55;;;;;;;;;;341663;28;64019;-71
2021/06/18 00:44:16;;;;;;;11.15;6.60;;;;;;;;;;343672;28;1002;-72
2021/06/18 00:44:28;;;;;;;10.52;6.75;;;;;;;;;;344172;28;1270;-71
2021/06/18 00:44:40;;;;;;;9.80;7.13;;;;;;;;;;343894;28;1358;-71
2021/06/18 00:44:52;;;;;;;9.50;7.03;;;;;;;;;;343969;28;1261;-72
2021/06/18 00:45:05;;;;;;;9.82;6.88;;;;;;;;;;344612;28;1184;-71
2021/06/18 00:45:17;;;;;;;10.43;7.43;;;;;;;;;;344929;28;1093;-70
2021/06/18 00:45:29;;;;;;;10.70;7.40;;;;;;;;;;343543;28;1061;-71
2021/06/18 00:45:42;;;;;;;10.32;7.22;;;;;;;;;;343560;28;1070;-71
2021/06/18 00:45:54;;;;;;;9.95;7.00;;;;;;;;;;343796;28;1857;-72
2021/06/18 00:46:07;;;;;;;8.13;6.60;;;;;;;;;;343520;28;1186;-71
2021/06/18 00:46:19;;;;;;;9.02;6.57;;;;;;;;;;343681;28;1374;-71
2021/06/18 00:46:31;;;;;;;9.52;6.82;;;;;;;;;;343483;28;1345;-71
2021/06/18 00:46:44;;;;;;;9.32;6.95;;;;;;;;;;343694;28;1247;-71
2021/06/18 00:46:56;;;;;;;9.50;6.76;;;;;;;;;;343535;28;1098;-71
2021/06/18 00:47:12;;;;;;;10.35;6.70;;;;;;;;;;343523;28;1217;-72
2021/06/18 00:47:25;;;;;;;9.68;6.88;;;;;;;;;;341507;28;64026;-70
2021/06/18 00:47:44;;;;;;;10.05;6.80;;;;;;;;;;345032;28;1418;-71
2021/06/18 00:47:59;;;;;;;11.43;6.78;;;;;;;;;;342832;28;62491;-70
2021/06/18 00:48:12;;;;;;;11.08;7.00;;;;;;;;;;344635;28;17419;-70
2021/06/18 00:48:24;;;;;;;10.45;7.00;;;;;;;;;;344933;28;1082;-71
2021/06/18 00:48:36;;;;;;;9.93;7.03;;;;;;;;;;344170;28;1016;-73
2021/06/18 00:48:49;;;;;;;9.77;6.97;;;;;;;;;;343669;28;1274;-70
2021/06/18 00:49:02;;;;;;;10.43;7.10;;;;;;;;;;344191;28;959;-71
2021/06/18 00:49:14;;;;;;;9.88;6.68;;;;;;;;;;345020;28;1291;-71
2021/06/18 00:49:26;;;;;;;10.18;6.90;;;;;;;;;;345009;28;1054;-71
2021/06/18 00:49:39;;;;;;;9.38;6.82;;;;;;;;;;343791;28;1100;-71
2021/06/18 00:49:51;;;;;;;9.20;6.65;;;;;;;;;;343741;28;1646;-72
2021/06/18 00:50:04;;;;;;;11.20;6.78;;;;;;;;;;346091;28;1797;-70
2021/06/18 00:50:18;;;;;;;11.35;6.93;;;;;;;;;;343426;28;1188;-71
2021/06/18 00:50:31;;;;;;;10.68;6.98;;;;;;;;;;342425;28;1039;-71
2021/06/18 00:50:43;;;;;;;10.13;7.00;;;;;;;;;;340954;29;1233;-71
2021/06/18 00:50:58;;;;;;;10.57;7.50;;;;;;;;;;338897;29;63111;-71
2021/06/18 00:51:10;;;;;;;11.23;7.50;;;;;;;;;;340966;28;1930;-71
2021/06/18 00:51:24;;;;;;;10.75;7.20;;;;;;;;;;341067;28;1120;-71
2021/06/18 00:51:36;;;;;;;10.18;6.80;;;;;;;;;;342165;28;1170;-71
2021/06/18 00:51:49;;;;;;;9.52;6.63;;;;;;;;;;341172;28;2057;-71
2021/06/18 00:52:01;;;;;;;9.85;6.88;;;;;;;;;;340803;28;1051;-73
2021/06/18 00:52:15;;;;;;;9.82;6.88;;;;;;;;;;341036;28;1099;-70
2021/06/18 00:52:27;;;;;;;9.88;7.00;;;;;;;;;;341816;28;17807;-71
2021/06/18 00:52:39;;;;;;;10.35;7.20;;;;;;;;;;343542;28;1072;-71
2021/06/18 00:52:51;;;;;;;10.45;7.22;;;;;;;;;;343946;28;954;-71
2021/06/18 00:53:03;;;;;;;10.25;7.15;;;;;;;;;;343799;28;1098;-71
2021/06/18 00:53:16;;;;;;;10.13;7.40;;;;;;;;;;343849;28;1067;-72
2021/06/18 00:53:28;;;;;;;10.10;7.22;;;;;;;;;;343983;28;1257;-72
2021/06/18 00:53:40;;;;;;;9.93;7.22;;;;;;;;;;345030;28;1176;-71
2021/06/18 00:53:54;;;;;;;10.30;7.25;;;;;;;;;;344676;28;1968;-71
2021/06/18 00:54:07;;;;;;;11.88;7.07;;;;;;;;;;344138;28;16620;-71
2021/06/18 00:54:28;;;;;;;11.20;6.80;;;;;;;;;;344965;28;1080;-72
2021/06/18 00:54:42;;;;;;;9.90;6.50;;;;;;;;;;341038;28;86541;-71
2021/06/18 00:54:54;;;;;;;10.70;6.40;;;;;;;;;;342627;28;40130;-72
2021/06/18 00:55:07;;;;;;;8.88;6.18;;;;;;;;;;343983;28;1235;-70
2021/06/18 00:55:19;;;;;;;9.32;6.38;;;;;;;;;;344497;28;1300;-72
2021/06/18 00:55:32;;;;;;;10.00;6.53;;;;;;;;;;345197;28;1095;-71
2021/06/18 00:55:48;;;;;;;12.27;6.90;;;;;;;;;;343395;28;1603;-71
2021/06/18 00:56:00;;;;;;;13.77;7.10;;;;;;;;;;340906;28;62690;-72
2021/06/18 00:56:13;;;;;;;11.50;7.13;;;;;;;;;;342554;28;1255;-71
2021/06/18 00:56:26;;;;;;;9.32;6.90;;;;;;;;;;342463;28;1052;-71
2021/06/18 00:56:38;;;;;;;9.48;6.70;;;;;;;;;;342196;28;1925;-71
2021/06/18 00:56:50;;;;;;;9.63;6.72;;;;;;;;;;343339;28;1233;-71
2021/06/18 00:57:03;;;;;;;9.77;6.88;;;;;;;;;;343317;28;1311;-71
2021/06/18 00:57:16;;;;;;;10.60;6.93;;;;;;;;;;342772;28;1129;-72
2021/06/18 00:57:29;;;;;;;10.82;6.93;;;;;;;;;;341902;28;17379;-70
2021/06/18 00:57:41;;;;;;;9.75;7.15;;;;;;;;;;342607;28;1078;-72
2021/06/18 00:57:53;;;;;;;10.27;7.30;;;;;;;;;;343852;28;2052;-71
2021/06/18 00:58:06;;;;;;;8.95;7.20;;;;;;;;;;343834;28;1043;-71
2021/06/18 00:58:18;;;;;;;9.40;7.22;;;;;;;;;;344016;28;1146;-71
2021/06/18 00:58:30;;;;;;;9.60;6.88;;;;;;;;;;343868;28;1041;-72
2021/06/18 00:58:43;;;;;;;9.77;6.80;;;;;;;;;;343233;28;1307;-72
2021/06/18 00:58:55;;;;;;;9.45;6.72;;;;;;;;;;342646;28;1106;-72
2021/06/18 00:59:07;;;;;;;11.52;7.13;;;;;;;;;;342487;28;1039;-71
2021/06/18 00:59:20;;;;;;;13.23;7.55;;;;;;;;;;342269;28;1996;-71
2021/06/18 00:59:32;;;;;;;12.65;7.40;;;;;;;;;;342379;28;979;-71
2021/06/18 00:59:44;;;;;;;10.63;7.03;;;;;;;;;;342581;28;1236;-71
2021/06/18 00:59:56;;;;;;;10.48;6.97;;;;;;;;;;341843;28;1000;-72
2021/06/18 01:00:10;;;;;;;9.13;7.05;;;;;;;;;;342478;28;1070;-71
2021/06/18 01:00:23;;;;;;;8.45;7.30;;;;;;;;;;340831;28;63089;-70
2021/06/18 01:00:35;;;;;;;9.30;7.15;;;;;;;;;;343842;28;1717;-71
2021/06/18 01:00:48;;;;;;;10.27;6.68;;;;;;;;;;345576;28;1598;-71
2021/06/18 01:01:00;;;;;;;11.10;6.65;;;;;;;;;;345272;28;1375;-71
2021/06/18 01:01:12;;;;;;;9.70;6.75;;;;;;;;;;345184;28;1171;-70
2021/06/18 01:01:24;;;;;;;9.88;6.68;;;;;;;;;;343822;28;1189;-71
2021/06/18 01:01:36;;;;;;;10.95;6.75;;;;;;;;;;342383;28;1103;-72
2021/06/18 01:01:49;;;;;;;11.13;6.90;;;;;;;;;;342555;28;1135;-70
2021/06/18 01:02:01;;;;;;;9.90;7.28;;;;;;;;;;343974;28;1931;-70
2021/06/18 01:02:14;;;;;;;10.80;7.43;;;;;;;;;;344517;28;1118;-71
2021/06/18 01:02:26;;;;;;;11.50;7.78;;;;;;;;;;343777;28;1313;-71
2021/06/18 01:02:38;;;;;;;11.50;7.88;;;;;;;;;;344002;28;1141;-70
2021/06/18 01:02:51;;;;;;;10.25;7.55;;;;;;;;;;343892;28;1956;-70
2021/06/18 01:03:03;;;;;;;10.07;7.20;;;;;;;;;;344650;28;1094;-70
2021/06/18 01:03:18;;;;;;;11.45;7.15;;;;;;;;;;345115;28;1146;-71
2021/06/18 01:03:30;;;;;;;10.88;7.03;;;;;;;;;;345825;28;16551;-71
2021/06/18 01:03:42;;;;;;;9.60;6.95;;;;;;;;;;346437;28;1172;-71
2021/06/18 01:03:54;;;;;;;8.80;6.55;;;;;;;;;;346571;28;1096;-71
2021/06/18 01:04:07;;;;;;;9.68;6.63;;;;;;;;;;344619;28;1157;-69
2021/06/18 01:04:20;;;;;;;9.35;7.13;;;;;;;;;;343981;28;1297;-71
2021/06/18 01:04:33;;;;;;;9.30;6.95;;;;;;;;;;343321;28;17427;-72
2021/06/18 01:04:45;;;;;;;9.45;6.20;;;;;;;;;;343685;28;1229;-70
2021/06/18 01:04:57;;;;;;;10.55;6.10;;;;;;;;;;344047;28;1141;-71
2021/06/18 01:05:11;;;;;;;10.32;6.25;;;;;;;;;;344030;28;1095;-71
2021/06/18 01:05:25;;;;;;;9.60;6.15;;;;;;;;;;342679;28;39759;-71
2021/06/18 01:05:37;;;;;;;8.68;6.00;;;;;;;;;;343898;28;1335;-72
2021/06/18 01:05:51;;;;;;;8.13;5.68;;;;;;;;;;343849;28;1190;-71
2021/06/18 01:06:04;;;;;;;8.10;5.43;;;;;;;;;;342515;28;40851;-71
2021/06/18 01:06:20;;;;;;;9.50;5.68;;;;;;;;;;344046;28;1109;-71
2021/06/18 01:06:35;;;;;;;10.80;6.28;;;;;;;;;;341776;28;64002;-71
2021/06/18 01:06:50;;;;;;;10.98;6.30;;;;;;;;;;342524;28;64015;-72
2021/06/18 01:07:07;;;;;;;10.20;6.10;;;;;;;;;;343385;28;17063;-70
2021/06/18 01:07:31;;;;;;;7.97;6.10;;;;;;;;;;341827;28;64177;-71
2021/06/18 01:07:58;;;;;;;8.30;5.70;;;;;;;;;;341905;28;62407;-71
2021/06/18 01:08:11;;;;;;;10.55;5.88;;;;;;;;;;341820;28;62182;-71
2021/06/18 01:08:45;;;;;;;9.68;5.95;;;;;;;;;;343874;28;1169;-71
2021/06/18 01:09:03;;;;;;;7.25;5.93;;;;;;;;;;342810;28;64332;-70
2021/06/18 01:09:16;;;;;;;6.68;5.68;;;;;;;;;;343172;28;64732;-71
2021/06/18 01:09:36;;;;;;;6.88;5.15;;;;;;;;;;343686;28;16686;-72
2021/06/18 01:09:57;;;;;;;7.60;4.80;;;;;;;;;;342142;28;62470;-71
2021/06/18 01:10:14;;;;;;;6.97;4.75;;;;;;;;;;343075;28;63325;-71
2021/06/18 01:10:27;;;;;;;6.43;4.82;;;;;;;;;;341829;28;63960;-70
2021/06/18 01:10:47;;;;;;;6.90;4.95;;;;;;;;;;345016;28;1291;-71
2021/06/18 01:11:03;;;;;;;7.18;4.93;;;;;;;;;;343070;28;62666;-71
2021/06/18 01:11:34;;;;;;;5.85;4.90;;;;;;;;;;343419;28;62661;-71
2021/06/18 01:12:05;;;;;;;5.18;4.63;;;;;;;;;;341771;28;64544;-71
2021/06/18 01:12:19;;;;;;;6.88;5.05;;;;;;;;;;342141;28;64432;-71
2021/06/18 01:12:35;;;;;;;6.22;5.03;;;;;;;;;;344562;28;17848;-72
2021/06/18 01:13:05;;;;;;;5.63;4.97;;;;;;;;;;343027;28;63728;-71
2021/06/18 01:13:17;;;;;;;5.95;4.97;;;;;;;;;;342512;28;64577;-72
2021/06/18 01:13:30;;;;;;;6.10;4.97;;;;;;;;;;344705;28;1372;-71
2021/06/18 01:13:42;;;;;;;6.22;5.00;;;;;;;;;;343934;28;1078;-71
2021/06/18 01:13:54;;;;;;;6.70;4.90;;;;;;;;;;343949;28;1114;-70
2021/06/18 01:14:24;;;;;;;7.38;4.93;;;;;;;;;;344784;28;1161;-72
2021/06/18 01:14:48;;;;;;;7.53;5.07;;;;;;;;;;343237;28;63302;-70
2021/06/18 01:15:08;;;;;;;6.25;4.97;;;;;;;;;;342922;28;64663;-71
2021/06/18 01:15:39;;;;;;;6.25;5.15;;;;;;;;;;341671;28;63394;-70
2021/06/18 01:15:57;;;;;;;5.60;5.07;;;;;;;;;;342037;28;87280;-72
2021/06/18 01:16:15;;;;;;;6.20;5.14;;;;;;;;;;341067;28;87839;-72
2021/06/18 01:16:34;;;;;;;7.60;5.03;;;;;;;;;;341850;28;64227;-70
2021/06/18 01:17:12;;;;;;;6.35;4.78;;;;;;;;;;341608;28;63706;-71
2021/06/18 01:17:41;;;;;;;6.28;4.88;;;;;;;;;;337653;29;64235;-70
2021/06/18 01:17:55;;;;;;;6.78;4.45;;;;;;;;;;338728;29;64350;-71
2021/06/18 01:18:11;;;;;;;6.70;4.32;;;;;;;;;;340488;29;18711;-70
2021/06/18 01:18:26;;;;;;;6.32;4.40;;;;;;;;;;339107;29;65194;-71
2021/06/18 01:18:50;;;;;;;6.30;4.50;;;;;;;;;;339757;29;40143;-71
2021/06/18 01:19:18;;;;;;;5.93;4.30;;;;;;;;;;339073;29;63164;-71
2021/06/18 01:19:31;;;;;;;6.13;4.45;;;;;;;;;;338167;29;64847;-71
2021/06/18 01:20:01;;;;;;;5.35;4.32;;;;;;;;;;339668;29;1111;-71
2021/06/18 01:20:33;;;;;;;6.57;4.43;;;;;;;;;;339087;29;63661;-72
2021/06/18 01:20:56;;;;;;;6.15;4.60;;;;;;;;;;337677;29;64664;-70
2021/06/18 01:21:13;;;;;;;6.28;4.38;;;;;;;;;;337801;29;63692;-70
2021/06/18 01:21:37;;;;;;;7.15;4.60;;;;;;;;;;337695;29;64521;-71
2021/06/18 01:22:09;;;;;;;6.43;4.50;;;;;;;;;;337954;28;63616;-72
2021/06/18 01:22:22;;;;;;;6.75;4.20;;;;;;;;;;338467;29;64602;-71
2021/06/18 01:22:35;;;;;;;6.28;4.15;;;;;;;;;;340523;29;1863;-70
2021/06/18 01:22:50;;;;;;;6.60;4.15;;;;;;;;;;339772;29;1021;-71
2021/06/18 01:23:03;;;;;;;6.03;4.32;;;;;;;;;;338007;29;41162;-70
2021/06/18 01:23:27;;;;;;;5.60;4.30;;;;;;;;;;339566;29;1522;-71
2021/06/18 01:23:39;;;;;;;4.53;4.05;;;;;;;;;;336478;29;60893;-70
2021/06/18 01:23:54;;;;;;;5.47;4.03;;;;;;;;;;338656;29;1051;-71